createdAt,value
2023-04-26T00:00:56.526Z,99680.06
2023-04-26T00:04:18.602Z,99685.72
2023-04-26T00:07:27.076Z,99685.91
2023-04-26T00:10:43.481Z,99682.25
2023-04-26T00:13:52.489Z,99681.66
2023-04-26T00:17:07.529Z,99681.37
2023-04-26T00:20:22.472Z,99689.72
2023-04-26T00:23:24.436Z,99690.38
2023-04-26T00:26:39.478Z,99687.69
2023-04-26T00:29:48.364Z,99700.31
2023-04-26T00:32:56.491Z,99711.81
2023-04-26T00:36:11.525Z,99709.25
2023-04-26T00:39:33.485Z,99701.22
2023-04-26T00:42:48.533Z,99714.00
2023-04-26T00:46:03.551Z,99716.16
2023-04-26T00:49:16.942Z,99719.06
2023-04-26T00:52:26.472Z,99724.28
2023-04-26T00:55:41.531Z,99719.56
2023-04-26T00:58:50.353Z,99722.50
2023-04-26T01:01:58.517Z,99722.81
2023-04-26T01:05:07.344Z,99720.84
2023-04-26T01:08:16.487Z,99746.59
2023-04-26T01:11:25.327Z,99716.41
2023-04-26T01:14:34.485Z,99724.72
2023-04-26T01:17:46.618Z,99733.03
2023-04-26T01:20:56.510Z,99735.38
2023-04-26T01:24:05.739Z,99738.06
2023-04-26T01:27:14.489Z,99731.50
2023-04-26T01:30:29.562Z,99736.19
2023-04-26T01:33:38.497Z,99745.88
2023-04-26T01:36:47.063Z,99748.44
2023-04-26T01:40:01.509Z,99753.78
2023-04-26T01:43:09.732Z,99760.59
2023-04-26T01:46:24.528Z,99758.22
2023-04-26T01:49:26.677Z,99759.28
2023-04-26T01:52:41.532Z,99764.44
2023-04-26T01:55:43.440Z,99766.56
2023-04-26T01:58:58.498Z,99769.25
2023-04-26T02:02:13.518Z,99767.53
2023-04-26T02:05:15.458Z,99772.09
2023-04-26T02:08:31.478Z,99772.87
2023-04-26T02:11:46.520Z,99765.06
2023-04-26T02:14:48.416Z,99780.37
2023-04-26T02:18:03.533Z,99777.81
2023-04-26T02:21:08.418Z,99785.53
2023-04-26T02:24:23.492Z,99779.66
2023-04-26T02:27:25.345Z,99780.75
2023-04-26T02:30:43.511Z,99779.75
2023-04-26T02:33:51.498Z,99783.56
2023-04-26T02:37:06.520Z,99774.19
2023-04-26T02:40:28.489Z,99780.09
2023-04-26T02:43:37.519Z,99774.19
2023-04-26T02:46:52.574Z,99789.19
2023-04-26T02:50:01.050Z,99786.75
2023-04-26T02:53:15.484Z,99791.59
2023-04-26T02:56:17.270Z,99787.63
2023-04-26T02:59:32.527Z,99790.34
2023-04-26T03:02:40.642Z,99793.25
2023-04-26T03:05:55.583Z,99799.38
2023-04-26T03:09:04.493Z,99804.72
2023-04-26T03:12:19.501Z,99806.19
2023-04-26T03:15:34.503Z,99821.25
2023-04-26T03:18:43.094Z,99815.81
2023-04-26T03:21:51.469Z,99830.75
2023-04-26T03:25:00.116Z,99843.59
2023-04-26T03:28:14.488Z,99850.28
2023-04-26T03:31:22.558Z,99851.94
2023-04-26T03:34:31.042Z,99848.81
2023-04-26T03:37:39.514Z,99852.56
2023-04-26T03:41:01.492Z,99859.28
2023-04-26T03:44:16.484Z,99864.87
2023-04-26T03:47:24.514Z,99863.81
2023-04-26T03:50:39.539Z,99861.66
2023-04-26T03:53:41.329Z,99869.97
2023-04-26T03:56:56.517Z,99870.75
2023-04-26T03:59:58.389Z,99860.66
2023-04-26T04:03:13.710Z,99869.97
2023-04-26T04:06:22.477Z,99874.25
2023-04-26T04:09:37.496Z,99877.97
2023-04-26T04:12:39.320Z,99884.38
2023-04-26T04:15:54.537Z,99889.16
2023-04-26T04:19:03.529Z,99885.41
2023-04-26T04:22:12.305Z,99864.66
2023-04-26T04:25:20.482Z,99893.87
2023-04-26T04:28:35.476Z,99899.97
2023-04-26T04:31:44.563Z,99864.03
2023-04-26T04:34:53.051Z,99869.84
2023-04-26T04:38:08.484Z,99891.63
2023-04-26T04:41:16.754Z,99897.06
2023-04-26T04:44:31.527Z,99911.91
2023-04-26T04:47:33.429Z,99910.88
2023-04-26T04:50:48.489Z,99932.94
2023-04-26T04:53:56.498Z,99925.69
2023-04-26T04:57:05.784Z,99933.66
2023-04-26T05:00:21.568Z,99935.00
2023-04-26T05:03:36.667Z,99944.88
2023-04-26T05:06:38.581Z,99947.63
2023-04-26T05:09:53.501Z,99957.19
2023-04-26T05:13:08.483Z,99955.44
2023-04-26T05:16:23.530Z,99956.22
2023-04-26T05:19:38.495Z,99972.59
2023-04-26T05:22:47.100Z,99969.09
2023-04-26T05:25:55.536Z,99968.13
2023-04-26T05:29:04.069Z,99975.41
2023-04-26T05:32:18.492Z,99968.84
2023-04-26T05:35:20.434Z,99976.53
2023-04-26T05:38:35.472Z,99977.06
2023-04-26T05:41:57.524Z,99985.81
2023-04-26T05:45:13.495Z,99969.56
2023-04-26T05:48:15.922Z,99982.78
2023-04-26T05:55:02.689Z,99988.63
2023-04-26T05:58:13.338Z,99990.84
2023-04-26T06:01:21.599Z,99989.50
2023-04-26T06:04:36.646Z,99991.34
2023-04-26T06:07:51.538Z,99993.94
2023-04-26T06:10:53.591Z,99990.56
2023-04-26T06:14:14.384Z,100000.91
2023-04-26T06:17:26.331Z,99994.16
2023-04-26T06:20:43.205Z,100004.50
2023-04-26T06:23:58.689Z,100010.31
2023-04-26T06:27:07.489Z,100019.16
2023-04-26T06:30:23.676Z,100025.00
2023-04-26T06:33:26.052Z,100022.28
2023-04-26T06:36:43.507Z,100009.91
2023-04-26T06:40:07.578Z,100005.31
2023-04-26T06:43:09.596Z,100016.63
2023-04-26T06:46:24.596Z,100019.66
2023-04-26T06:49:35.089Z,100006.97
2023-04-26T06:52:44.726Z,100011.00
2023-04-26T06:55:59.500Z,100014.34
2023-04-26T06:59:07.121Z,100010.59
2023-04-26T07:02:22.766Z,100011.44
2023-04-26T07:05:24.941Z,100018.59
2023-04-26T07:08:40.493Z,100008.06
2023-04-26T07:11:49.191Z,100001.22
2023-04-26T07:15:04.500Z,100001.94
2023-04-26T07:18:13.700Z,100029.66
2023-04-26T07:21:30.433Z,100021.50
2023-04-26T07:24:46.557Z,100039.56
2023-04-26T07:27:55.537Z,100022.28
2023-04-26T07:31:05.972Z,100035.38
2023-04-26T07:34:15.489Z,100030.37
2023-04-26T07:37:24.120Z,100029.88
2023-04-26T07:40:40.485Z,100040.16
2023-04-26T07:43:56.526Z,100057.09
2023-04-26T07:47:11.533Z,100051.72
2023-04-26T07:50:21.524Z,100051.50
2023-04-26T07:53:36.566Z,100065.13
2023-04-26T07:56:52.551Z,100056.59
2023-04-26T08:00:01.517Z,100050.28
2023-04-26T08:03:15.375Z,100070.19
2023-04-26T08:06:31.741Z,100071.25
2023-04-26T08:09:40.110Z,100059.56
2023-04-26T08:12:52.506Z,100059.44
2023-04-26T08:16:02.870Z,100076.28
2023-04-26T08:19:18.529Z,100072.16
2023-04-26T08:22:28.333Z,100075.31
2023-04-26T08:25:43.547Z,100075.59
2023-04-26T08:28:52.045Z,100087.00
2023-04-26T08:32:00.610Z,100086.81
2023-04-26T08:35:16.503Z,100099.41
2023-04-26T08:38:33.909Z,100088.94
2023-04-26T08:41:44.716Z,100079.94
2023-04-26T08:45:00.522Z,100089.25
2023-04-26T08:48:12.366Z,100094.66
2023-04-26T08:51:21.510Z,100100.03
2023-04-26T08:54:41.055Z,100078.03
2023-04-26T08:57:57.599Z,100095.25
2023-04-26T09:01:14.556Z,100096.72
2023-04-26T09:04:31.303Z,100056.19
2023-04-26T09:07:54.570Z,100099.38
2023-04-26T09:11:10.658Z,100112.13
2023-04-26T09:14:19.772Z,100101.91
2023-04-26T09:17:36.049Z,100091.31
2023-04-26T09:20:51.619Z,100107.81
2023-04-26T09:24:08.544Z,100094.47
2023-04-26T09:27:10.412Z,100106.41
2023-04-26T09:30:25.522Z,100101.78
2023-04-26T09:33:40.480Z,100099.06
2023-04-26T09:36:57.491Z,100109.25
2023-04-26T09:40:25.553Z,100113.31
2023-04-26T09:43:47.505Z,100119.34
2023-04-26T09:47:15.805Z,100101.47
2023-04-26T09:50:29.057Z,100106.31
2023-04-26T09:53:47.498Z,100122.25
2023-04-26T09:57:07.484Z,100106.22
2023-04-26T10:00:16.493Z,100090.06
2023-04-26T10:03:32.694Z,100091.72
2023-04-26T10:06:48.584Z,100099.84
2023-04-26T10:09:58.544Z,100098.75
2023-04-26T10:13:07.563Z,100101.94
2023-04-26T10:16:16.842Z,100097.78
2023-04-26T10:19:32.950Z,100090.53
2023-04-26T10:22:50.507Z,100096.28
2023-04-26T10:25:59.280Z,100109.28
2023-04-26T10:29:14.516Z,100108.06
2023-04-26T10:32:30.508Z,100083.19
2023-04-26T10:35:32.653Z,100102.53
2023-04-26T10:39:09.548Z,100086.50
2023-04-26T10:42:43.897Z,100110.38
2023-04-26T10:46:00.346Z,100110.47
2023-04-26T10:49:29.231Z,100096.62
2023-04-26T10:53:04.080Z,100102.91
2023-04-26T10:56:12.526Z,100097.47
2023-04-26T10:59:43.566Z,100097.72
2023-04-26T11:03:06.656Z,100091.41
2023-04-26T11:06:15.715Z,100108.37
2023-04-26T11:09:56.514Z,100118.28
2023-04-26T11:13:05.479Z,100101.19
2023-04-26T11:16:18.552Z,100106.88
2023-04-26T11:19:27.197Z,100106.72
2023-04-26T11:22:35.513Z,100108.31
2023-04-26T11:25:51.543Z,100099.56
2023-04-26T11:29:00.521Z,100108.13
2023-04-26T11:32:09.091Z,100102.53
2023-04-26T11:35:17.514Z,100094.31
2023-04-26T11:38:34.569Z,100113.62
2023-04-26T11:41:36.670Z,100115.28
2023-04-26T11:44:52.593Z,100108.00
2023-04-26T11:48:08.577Z,100120.66
2023-04-26T11:51:17.694Z,99921.19
2023-04-26T11:54:35.672Z,100125.97
2023-04-26T11:57:44.511Z,100115.69
2023-04-26T12:01:02.108Z,100124.75
2023-04-26T12:04:16.700Z,100122.09
2023-04-26T12:07:19.079Z,100123.72
2023-04-26T12:10:42.527Z,100104.19
2023-04-26T12:14:05.550Z,100106.84
2023-04-26T12:17:21.671Z,100108.94
2023-04-26T12:20:41.521Z,100112.69
2023-04-26T12:23:50.438Z,100116.09
2023-04-26T12:27:01.632Z,100110.44
2023-04-26T12:30:11.462Z,100105.44
2023-04-26T12:33:26.623Z,100061.00
2023-04-26T12:36:41.533Z,100111.47
2023-04-26T12:39:50.216Z,100120.31
2023-04-26T12:43:11.582Z,100120.78
2023-04-26T12:46:13.498Z,100119.25
2023-04-26T12:49:28.529Z,100090.03
2023-04-26T12:52:44.557Z,100129.19
2023-04-26T12:55:53.111Z,100117.53
2023-04-26T12:59:01.524Z,100113.50
2023-04-26T13:02:16.696Z,100127.00
2023-04-26T13:05:22.925Z,100120.56
2023-04-26T13:08:38.721Z,100122.56
2023-04-26T13:11:40.879Z,100131.22
2023-04-26T13:14:55.530Z,100142.16
2023-04-26T13:17:57.568Z,100135.37
2023-04-26T13:21:12.542Z,100140.59
2023-04-26T13:24:21.136Z,100133.53
2023-04-26T13:27:35.527Z,100145.53
2023-04-26T13:30:44.311Z,100141.38
2023-04-26T13:33:53.713Z,100146.47
2023-04-26T13:37:02.291Z,100148.28
2023-04-26T13:40:11.547Z,100147.53
2023-04-26T13:43:33.568Z,100158.94
2023-04-26T13:46:41.802Z,100158.72
2023-04-26T13:49:56.518Z,100152.72
2023-04-26T13:53:11.561Z,100138.13
2023-04-26T13:56:26.860Z,100163.50
2023-04-26T13:59:28.812Z,100158.59
2023-04-26T14:02:43.804Z,100165.31
2023-04-26T14:05:52.287Z,100166.78
2023-04-26T14:09:07.570Z,100163.84
2023-04-26T14:12:16.564Z,100170.91
2023-04-26T14:15:25.154Z,100178.22
2023-04-26T14:18:39.552Z,100184.34
2023-04-26T14:21:42.138Z,100175.16
2023-04-26T14:24:56.567Z,100177.09
2023-04-26T14:28:06.020Z,100182.78
2023-04-26T14:31:14.852Z,100169.78
2023-04-26T14:34:23.144Z,100178.47
2023-04-26T14:37:37.536Z,100183.88
2023-04-26T14:40:46.521Z,100184.03
2023-04-26T14:44:01.546Z,100189.91
2023-04-26T14:47:16.548Z,100194.41
2023-04-26T14:50:25.307Z,100191.31
2023-04-26T14:53:33.592Z,100188.31
2023-04-26T14:56:42.174Z,100183.31
2023-04-26T14:59:50.558Z,100189.78
2023-04-26T15:03:05.680Z,100185.69
2023-04-26T15:06:20.525Z,100189.03
2023-04-26T15:09:36.513Z,100191.03
2023-04-26T15:12:44.545Z,100193.47
2023-04-26T15:15:59.539Z,100201.50
2023-04-26T15:19:08.153Z,100202.00
2023-04-26T15:22:16.564Z,100203.41
2023-04-26T15:25:31.620Z,100219.13
2023-04-26T15:28:40.236Z,100205.25
2023-04-26T15:31:48.619Z,100213.63
2023-04-26T15:34:57.708Z,100197.03
2023-04-26T15:38:06.527Z,100205.59
2023-04-26T15:41:21.820Z,100213.00
2023-04-26T15:44:30.553Z,100196.72
2023-04-26T15:51:12.561Z,100221.00
2023-04-26T15:54:21.825Z,100204.16
2023-04-26T15:57:30.537Z,100216.31
2023-04-26T16:00:45.535Z,100212.41
2023-04-26T16:04:00.769Z,100198.75
2023-04-26T16:07:15.585Z,100207.03
2023-04-26T16:10:30.601Z,100221.94
2023-04-26T16:13:39.164Z,100209.41
2023-04-26T16:16:53.812Z,100213.34
2023-04-26T16:20:03.424Z,100215.56
2023-04-26T16:23:12.536Z,100222.56
2023-04-26T16:26:27.553Z,100220.97
2023-04-26T16:29:29.919Z,100207.59
2023-04-26T16:32:44.685Z,100209.47
2023-04-26T16:35:50.455Z,100219.97
2023-04-26T16:39:05.557Z,100231.56
2023-04-26T16:42:27.650Z,100230.22
2023-04-26T16:45:42.637Z,100236.22
2023-04-26T16:48:57.521Z,100237.69
2023-04-26T16:51:59.765Z,100240.81
2023-04-26T16:55:15.552Z,100251.84
2023-04-26T16:58:24.550Z,100247.56
2023-04-26T17:01:39.573Z,100238.28
2023-04-26T17:04:48.928Z,100254.63
2023-04-26T17:07:57.166Z,100265.16
2023-04-26T17:11:11.560Z,100265.44
2023-04-26T17:14:13.806Z,100260.97
2023-04-26T17:17:28.585Z,100268.69
2023-04-26T17:20:38.382Z,100267.13
2023-04-26T17:23:46.536Z,100269.09
2023-04-26T17:27:01.537Z,100268.50
2023-04-26T17:30:10.531Z,100266.28
2023-04-26T17:33:19.589Z,100277.22
2023-04-26T17:36:28.570Z,100272.91
2023-04-26T17:39:37.326Z,100278.09
2023-04-26T17:42:59.578Z,100282.38
2023-04-26T17:46:08.115Z,100284.94
2023-04-26T17:49:17.120Z,100291.78
2023-04-26T17:52:32.561Z,100297.09
2023-04-26T17:55:34.894Z,100296.78
2023-04-26T17:58:49.592Z,100308.63
2023-04-26T18:02:04.607Z,100305.63
2023-04-26T18:05:14.198Z,100325.00
2023-04-26T18:08:23.664Z,100327.97
2023-04-26T18:11:39.999Z,100325.28
2023-04-26T18:14:48.635Z,100327.97
2023-04-26T18:18:03.618Z,100324.56
2023-04-26T18:21:06.454Z,100331.84
2023-04-26T18:24:24.669Z,100335.25
2023-04-26T18:27:33.843Z,100337.94
2023-04-26T18:30:46.159Z,100337.94
2023-04-26T18:33:55.863Z,100339.31
2023-04-26T18:37:04.639Z,100322.91
2023-04-26T18:40:19.635Z,100346.16
2023-04-26T18:43:36.216Z,100359.88
2023-04-26T18:46:47.150Z,100362.84
2023-04-26T18:50:02.930Z,100360.69
2023-04-26T18:53:11.765Z,100363.94
2023-04-26T18:56:27.543Z,100371.31
2023-04-26T18:59:36.747Z,100371.00
2023-04-26T19:02:46.126Z,100369.44
2023-04-26T19:05:55.282Z,100368.66
2023-04-26T19:09:03.987Z,100379.19
2023-04-26T19:12:12.835Z,100371.28
2023-04-26T19:15:22.023Z,100381.97
2023-04-26T19:18:31.271Z,100385.19
2023-04-26T19:21:46.970Z,100382.06
2023-04-26T19:25:02.953Z,100380.22
2023-04-26T19:28:18.084Z,100382.13
2023-04-26T19:31:20.754Z,100395.59
2023-04-26T19:34:35.980Z,100385.75
2023-04-26T19:37:38.695Z,100383.56
2023-04-26T19:40:56.291Z,100384.38
2023-04-26T19:44:13.024Z,100388.47
2023-04-26T19:47:21.370Z,100388.72
2023-04-26T19:50:38.025Z,100386.88
2023-04-26T19:53:46.268Z,100386.66
2023-04-26T19:57:01.551Z,100395.28
2023-04-26T20:00:11.155Z,100393.16
2023-04-26T20:03:25.684Z,100396.37
2023-04-26T20:06:34.830Z,100393.50
2023-04-26T20:09:50.001Z,100401.25
2023-04-26T20:13:05.065Z,100403.19
2023-04-26T20:16:20.033Z,100417.94
2023-04-26T20:19:37.073Z,100407.22
2023-04-26T20:22:46.365Z,100419.56
2023-04-26T20:25:54.565Z,100415.38
2023-04-26T20:29:10.049Z,100399.63
2023-04-26T20:32:24.684Z,100403.37
2023-04-26T20:35:33.908Z,100418.84
2023-04-26T20:38:42.899Z,100421.28
2023-04-26T20:41:51.968Z,100425.03
2023-04-26T20:45:13.576Z,100429.84
2023-04-26T20:48:15.503Z,100434.66
2023-04-26T20:51:31.561Z,100435.53
2023-04-26T20:54:46.586Z,100434.22
2023-04-26T20:57:48.582Z,100433.69
2023-04-26T21:01:05.663Z,100429.97
2023-04-26T21:04:15.664Z,100438.00
2023-04-26T21:07:24.167Z,100435.12
2023-04-26T21:10:32.560Z,100441.88
2023-04-26T21:13:41.481Z,100443.28
2023-04-26T21:16:49.570Z,100450.25
2023-04-26T21:19:58.240Z,100445.16
2023-04-26T21:23:06.538Z,100447.06
2023-04-26T21:26:15.114Z,100459.66
2023-04-26T21:29:23.553Z,100451.13
2023-04-26T21:32:42.615Z,100461.53
2023-04-26T21:35:44.479Z,100464.75
2023-04-26T21:38:59.538Z,100464.19
2023-04-26T21:42:07.888Z,100464.22
2023-04-26T21:45:22.566Z,100468.75
2023-04-26T21:48:31.165Z,100471.13
2023-04-26T21:51:39.558Z,100480.22
2023-04-26T21:54:54.571Z,100475.97
2023-04-26T21:57:56.430Z,100477.28
2023-04-26T22:01:16.581Z,100480.25
2023-04-26T22:04:31.617Z,100477.81
2023-04-26T22:07:40.560Z,100479.44
2023-04-26T22:10:55.559Z,100483.19
2023-04-26T22:13:57.564Z,100485.03
2023-04-26T22:17:12.561Z,100484.50
2023-04-26T22:20:21.328Z,100489.03
2023-04-26T22:23:36.554Z,100491.94
2023-04-26T22:26:38.437Z,100499.41
2023-04-26T22:29:53.559Z,100490.31
2023-04-26T22:33:02.213Z,100500.16
2023-04-26T22:36:17.625Z,100504.94
2023-04-26T22:39:26.237Z,100510.53
2023-04-26T22:42:41.620Z,100518.00
2023-04-26T22:45:50.301Z,100520.91
2023-04-26T22:49:06.583Z,100516.38
2023-04-26T22:52:14.478Z,100512.31
2023-04-26T22:55:35.573Z,100519.19
2023-04-26T22:58:50.545Z,100510.03
2023-04-26T23:01:52.403Z,100521.72
2023-04-26T23:05:08.533Z,100503.78
2023-04-26T23:08:20.182Z,100517.09
2023-04-26T23:11:34.549Z,100524.19
2023-04-26T23:14:43.260Z,100523.97
2023-04-26T23:17:51.589Z,100523.44
2023-04-26T23:21:06.582Z,100532.22
2023-04-26T23:24:14.554Z,100541.84
2023-04-26T23:27:23.085Z,100534.84
2023-04-26T23:30:37.562Z,100543.84
2023-04-26T23:33:46.111Z,100541.31
2023-04-26T23:37:07.890Z,100550.03
2023-04-26T23:40:11.293Z,100537.56
2023-04-26T23:43:33.554Z,100558.97
2023-04-26T23:46:42.214Z,100553.88
2023-04-26T23:49:57.534Z,100551.22
2023-04-26T23:52:59.505Z,100547.25
2023-04-26T23:56:14.569Z,100548.34
2023-04-26T23:59:16.447Z,100544.03
